Time;durP1;ratioP1;P1;durP2;ratioP2;P2;SDS_P1;SDS_P2;PMS_P1;PMS_P2;Temp;Humidity;BMP_temperature;BMP_pressure;BME280_temperature;BME280_humidity;BME280_pressure;Samples;Min_cycle;Max_cycle;Signal;HPM_P1;HPM_P2
2022/11/13 00:01:24;;;;;;;12.43;7.63;;;;;;;3.23;100.00;100108.66;5008585;28;20073;-62
2022/11/13 00:04:09;;;;;;;11.20;6.60;;;;;;;3.20;100.00;100115.31;5018578;28;20049;-62
2022/11/13 00:06:54;;;;;;;10.05;6.85;;;;;;;3.03;100.00;100091.94;5021357;28;20183;-64
2022/11/13 00:09:38;;;;;;;11.17;6.63;;;;;;;2.99;100.00;100084.16;5009138;28;20119;-62
2022/11/13 00:12:22;;;;;;;8.53;6.87;;;;;;;3.10;100.00;100114.13;5008831;28;20057;-62
2022/11/13 00:15:06;;;;;;;12.17;7.60;;;;;;;3.08;100.00;100110.69;5011020;28;20196;-62
2022/11/13 00:17:50;;;;;;;10.40;7.20;;;;;;;3.05;100.00;100100.47;5010123;28;20104;-62
2022/11/13 00:20:34;;;;;;;18.57;7.40;;;;;;;3.06;100.00;100103.81;5009951;28;20512;-63
2022/11/13 00:23:19;;;;;;;7.72;6.25;;;;;;;3.03;100.00;100102.06;5008861;28;20075;-62
2022/11/13 00:26:08;;;;;;;9.67;6.20;;;;;;;2.86;100.00;100082.03;5007679;28;20065;-63
2022/11/13 00:28:58;;;;;;;14.73;7.83;;;;;;;2.84;100.00;100091.25;5009291;28;20108;-62
2022/11/13 00:31:42;;;;;;;13.17;6.90;;;;;;;2.88;100.00;100093.94;5008188;28;20536;-62
2022/11/13 00:34:26;;;;;;;10.53;6.67;;;;;;;2.89;100.00;100105.78;5010361;28;20048;-63
2022/11/13 00:37:10;;;;;;;10.33;6.97;;;;;;;2.86;100.00;100103.16;5009636;28;20099;-63
2022/11/13 00:39:54;;;;;;;10.90;6.93;;;;;;;2.87;100.00;100099.81;5008208;28;20060;-62
2022/11/13 00:42:37;;;;;;;13.00;7.97;;;;;;;2.86;100.00;100099.75;5009062;28;20087;-62
2022/11/13 00:45:21;;;;;;;15.40;7.93;;;;;;;2.80;100.00;100102.91;5022168;28;20104;-61
2022/11/13 00:48:05;;;;;;;14.13;8.43;;;;;;;2.75;100.00;100089.25;5009510;28;20618;-63
2022/11/13 00:50:50;;;;;;;12.17;6.80;;;;;;;2.61;100.00;100070.16;5007826;28;20088;-64
2022/11/13 00:53:34;;;;;;;11.37;7.27;;;;;;;2.65;100.00;100077.06;5009462;28;20061;-62
2022/11/13 00:56:18;;;;;;;11.77;6.50;;;;;;;2.59;100.00;100085.28;5006980;28;20081;-63
2022/11/13 00:59:03;;;;;;;8.77;6.93;;;;;;;2.60;100.00;100089.56;5002659;28;20138;-63
2022/11/13 01:01:47;;;;;;;10.43;6.57;;;;;;;2.67;100.00;100105.84;5008374;28;20412;-63
2022/11/13 01:04:31;;;;;;;10.10;6.00;;;;;;;2.57;100.00;100093.66;5010238;28;20272;-63
2022/11/13 01:07:15;;;;;;;9.30;6.60;;;;;;;2.62;100.00;100098.09;5003151;28;20563;-63
2022/11/13 01:10:00;;;;;;;10.30;6.40;;;;;;;2.63;100.00;100104.84;5008214;28;20137;-63
2022/11/13 01:12:44;;;;;;;10.50;6.87;;;;;;;2.60;100.00;100097.16;5006758;28;20053;-62
2022/11/13 01:15:29;;;;;;;14.30;7.22;;;;;;;2.43;100.00;100072.03;5002644;28;20504;-62
2022/11/13 01:18:13;;;;;;;11.03;6.47;;;;;;;2.44;100.00;100067.03;5009674;28;20111;-63
2022/11/13 01:21:25;;;;;;;10.57;6.77;;;;;;;2.58;100.00;100101.31;5007136;28;20061;-63
2022/11/13 01:24:09;;;;;;;10.63;7.07;;;;;;;2.56;100.00;100097.00;5008370;28;20125;-63
2022/11/13 01:26:53;;;;;;;12.40;7.13;;;;;;;2.51;100.00;100078.22;5007929;28;20053;-63
2022/11/13 01:29:38;;;;;;;9.40;6.80;;;;;;;2.62;100.00;100109.88;5003416;28;20052;-63
2022/11/13 01:32:22;;;;;;;12.67;7.40;;;;;;;2.61;100.00;100101.41;5005799;28;20052;-63
2022/11/13 01:35:06;;;;;;;17.37;10.13;;;;;;;2.65;100.00;100098.19;5008342;28;20133;-62
2022/11/13 01:37:50;;;;;;;13.30;8.33;;;;;;;2.62;100.00;100092.16;5006758;28;20457;-63
2022/11/13 01:40:34;;;;;;;15.87;7.67;;;;;;;2.61;100.00;100088.75;5008810;28;20048;-63
2022/11/13 01:43:33;;;;;;;12.27;7.40;;;;;;;2.57;100.00;100078.47;5010994;28;20065;-63
2022/11/13 01:46:33;;;;;;;11.20;6.83;;;;;;;2.49;100.00;100085.78;5011135;28;20160;-63
2022/11/13 01:49:29;;;;;;;11.40;6.77;;;;;;;2.55;100.00;100102.84;5011979;28;20123;-63
2022/11/13 01:52:22;;;;;;;12.38;6.60;;;;;;;2.34;100.00;100077.63;5011591;28;20124;-63
2022/11/13 01:55:12;;;;;;;11.43;6.93;;;;;;;2.38;100.00;100094.63;5013290;28;20384;-63
2022/11/13 01:57:57;;;;;;;12.43;7.13;;;;;;;2.22;100.00;100072.13;5012381;28;20111;-63
2022/11/13 02:00:42;;;;;;;11.40;7.07;;;;;;;2.31;100.00;100092.69;5012662;28;20096;-63
2022/11/13 02:03:26;;;;;;;9.37;6.27;;;;;;;2.20;100.00;100083.84;5011868;28;20587;-63
2022/11/13 02:06:10;;;;;;;13.67;7.53;;;;;;;2.22;100.00;100093.22;5013503;28;20060;-62
2022/11/13 02:08:55;;;;;;;11.57;6.90;;;;;;;2.06;100.00;100049.59;5010328;28;20114;-63
2022/11/13 02:11:39;;;;;;;11.63;6.80;;;;;;;2.17;100.00;100071.06;5010919;28;20065;-65
2022/11/13 02:14:26;;;;;;;8.70;6.65;;;;;;;2.11;100.00;100075.91;5008604;28;20128;-62
2022/11/13 02:17:23;;;;;;;9.73;6.10;;;;;;;1.96;100.00;100048.38;5006914;28;20404;-62
2022/11/13 02:20:08;;;;;;;9.77;7.50;;;;;;;2.07;100.00;100077.47;5013152;28;20100;-63
2022/11/13 02:23:10;;;;;;;11.13;6.55;;;;;;;1.99;100.00;100057.75;5008968;28;20056;-63
2022/11/13 02:25:54;;;;;;;10.97;6.53;;;;;;;2.01;100.00;100071.31;5012156;28;20056;-64
2022/11/13 02:28:38;;;;;;;9.93;6.40;;;;;;;1.95;100.00;100061.84;5009244;28;20096;-63
2022/11/13 02:31:22;;;;;;;9.57;7.00;;;;;;;1.96;100.00;100062.69;5010687;28;20524;-63
2022/11/13 02:34:07;;;;;;;8.80;7.47;;;;;;;1.87;100.00;100054.78;5010828;28;20067;-63
2022/11/13 02:36:51;;;;;;;13.27;7.60;;;;;;;1.80;100.00;100053.66;5009729;28;20056;-63
2022/11/13 02:39:35;;;;;;;9.47;6.77;;;;;;;1.78;100.00;100055.28;5011600;28;20119;-63
2022/11/13 02:42:19;;;;;;;10.30;6.13;;;;;;;1.80;100.00;100048.59;5012935;28;20100;-63
2022/11/13 02:45:05;;;;;;;11.23;6.60;;;;;;;1.81;100.00;100051.19;5012963;28;20088;-63
2022/11/13 02:47:49;;;;;;;;;;;;;;;1.79;100.00;100047.72;5009309;28;20141;-63
2022/11/13 02:50:35;;;;;;;10.00;6.60;;;;;;;1.74;100.00;100035.75;5007140;28;19984;-62
2022/11/13 02:53:19;;;;;;;11.60;7.13;;;;;;;1.76;100.00;100036.66;5009899;28;20056;-62
2022/11/13 02:56:04;;;;;;;8.10;6.67;;;;;;;1.92;100.00;100038.09;5011242;28;20176;-63
2022/11/13 02:58:48;;;;;;;10.23;6.80;;;;;;;2.01;100.00;100041.81;5012302;28;20599;-63
2022/11/13 03:01:32;;;;;;;9.83;6.80;;;;;;;2.07;100.00;100047.13;5010772;28;20088;-62
2022/11/13 03:04:16;;;;;;;11.90;8.17;;;;;;;2.12;100.00;100045.59;5010140;28;20172;-64
2022/11/13 03:07:01;;;;;;;12.03;7.47;;;;;;;2.19;100.00;100045.03;5011025;28;20052;-61
2022/11/13 03:09:45;;;;;;;13.63;7.30;;;;;;;2.12;100.00;100022.00;5012628;28;20056;-63
2022/11/13 03:12:31;;;;;;;15.40;9.00;;;;;;;2.24;100.00;100042.69;5007227;28;20081;-62
2022/11/13 03:15:15;;;;;;;23.30;11.90;;;;;;;2.36;100.00;100044.78;5010429;28;20056;-63
2022/11/13 03:18:04;;;;;;;40.30;14.50;;;;;;;2.42;100.00;100050.91;5011765;28;20143;-63
2022/11/13 03:20:52;;;;;;;29.73;13.00;;;;;;;2.48;100.00;100037.63;5020966;28;20076;-63
2022/11/13 03:23:38;;;;;;;87.43;14.83;;;;;;;2.39;100.00;100014.53;5006752;28;20060;-62
2022/11/13 03:26:22;;;;;;;78.40;16.33;;;;;;;2.41;100.00;100011.25;5013515;28;20065;-63
2022/11/13 03:29:06;;;;;;;42.33;14.20;;;;;;;2.57;100.00;100023.66;5008325;28;20068;-61
2022/11/13 03:31:51;;;;;;;205.90;23.87;;;;;;;2.59;100.00;100024.53;5011387;28;20222;-62
2022/11/13 03:34:38;;;;;;;143.67;21.40;;;;;;;2.49;100.00;100001.41;5011905;28;20048;-66
2022/11/13 03:37:22;;;;;;;199.03;24.50;;;;;;;2.51;100.00;99992.19;5013381;28;20179;-63
2022/11/13 03:40:07;;;;;;;131.40;22.27;;;;;;;2.50;100.00;99991.34;5012067;28;20080;-62
2022/11/13 03:42:51;;;;;;;213.10;26.83;;;;;;;2.58;100.00;100017.78;5004467;28;20100;-63
2022/11/13 03:45:35;;;;;;;182.93;26.57;;;;;;;2.60;100.00;100011.09;5008239;28;20155;-63
2022/11/13 03:48:19;;;;;;;102.83;23.07;;;;;;;2.64;100.00;100012.91;5008275;28;20496;-63
2022/11/13 03:51:03;;;;;;;160.67;26.13;;;;;;;2.66;100.00;100016.38;5007643;28;20047;-63
2022/11/13 03:53:47;;;;;;;105.37;24.77;;;;;;;2.65;100.00;100012.09;5009358;28;20060;-63
2022/11/13 03:56:32;;;;;;;114.60;26.33;;;;;;;2.70;100.00;100010.59;5009743;28;20461;-62
2022/11/13 03:59:15;;;;;;;147.37;30.87;;;;;;;2.68;100.00;99999.53;5010000;28;20481;-63
2022/11/13 04:01:59;;;;;;;50.23;20.17;;;;;;;2.68;100.00;99986.88;5008493;28;20088;-62
2022/11/13 04:04:44;;;;;;;244.77;33.57;;;;;;;2.73;100.00;100005.63;5008972;28;20192;-63
2022/11/13 04:07:29;;;;;;;170.97;28.93;;;;;;;2.69;100.00;100008.00;5010035;28;20068;-63
2022/11/13 04:10:13;;;;;;;106.43;26.27;;;;;;;2.75;100.00;100008.22;5008282;28;20057;-63
2022/11/13 04:12:57;;;;;;;186.37;28.23;;;;;;;2.78;100.00;100012.53;5009542;28;20107;-63
2022/11/13 04:15:41;;;;;;;225.60;32.47;;;;;;;2.69;100.00;100006.34;5011435;28;20456;-62
2022/11/13 04:18:26;;;;;;;105.85;23.85;;;;;;;2.67;100.00;100000.34;5010511;28;20139;-62
2022/11/13 04:21:10;;;;;;;110.33;26.10;;;;;;;2.70;100.00;100003.00;5008738;28;20064;-62
2022/11/13 04:23:54;;;;;;;120.67;25.40;;;;;;;2.71;100.00;99992.09;5008807;28;20436;-62
2022/11/13 04:26:38;;;;;;;196.60;33.63;;;;;;;2.71;100.00;99988.69;5009687;28;20053;-64
2022/11/13 04:29:22;;;;;;;300.53;41.60;;;;;;;2.51;100.00;99971.94;5007097;28;20111;-63
2022/11/13 04:32:06;;;;;;;174.80;31.27;;;;;;;2.53;100.00;99970.31;5006744;28;20056;-64
2022/11/13 04:34:50;;;;;;;416.73;50.67;;;;;;;2.65;100.00;99996.06;5008185;28;20056;-64
2022/11/13 04:37:34;;;;;;;358.30;47.43;;;;;;;2.61;100.00;99992.56;5010544;28;20057;-63
2022/11/13 04:40:19;;;;;;;234.97;34.47;;;;;;;2.55;100.00;99989.81;5007422;28;20053;-64
2022/11/13 04:43:03;;;;;;;258.00;40.10;;;;;;;2.62;100.00;99994.28;5020315;28;20081;-64
2022/11/13 04:45:50;;;;;;;222.50;33.03;;;;;;;2.61;100.00;99990.03;5005077;28;20508;-68
2022/11/13 04:48:34;;;;;;;111.57;23.60;;;;;;;2.56;100.00;99993.22;5005860;28;20745;-64
2022/11/13 04:51:18;;;;;;;222.73;32.03;;;;;;;2.53;100.00;100000.69;5002961;28;20060;-64
2022/11/13 04:54:03;;;;;;;199.20;29.17;;;;;;;2.39;100.00;99990.09;5006308;28;20148;-64
2022/11/13 04:56:47;;;;;;;151.27;26.80;;;;;;;2.53;100.00;100015.88;5009638;28;20052;-63
2022/11/13 04:59:32;;;;;;;188.27;28.97;;;;;;;2.50;100.00;100015.78;5008134;28;20140;-64
2022/11/13 05:02:16;;;;;;;294.87;40.23;;;;;;;2.37;100.00;99995.91;5009452;28;20143;-63
2022/11/13 05:05:01;;;;;;;194.00;30.17;;;;;;;2.49;100.00;100011.53;5007896;28;20160;-64
2022/11/13 05:07:45;;;;;;;200.70;36.17;;;;;;;2.50;100.00;100015.78;5009552;28;20053;-62
2022/11/13 05:10:29;;;;;;;213.40;30.17;;;;;;;2.20;100.00;100000.38;5002996;28;20362;-62
2022/11/13 05:13:13;;;;;;;80.23;18.97;;;;;;;2.27;100.00;100002.31;5005161;28;20140;-63
2022/11/13 05:16:09;;;;;;;172.23;26.70;;;;;;;2.25;100.00;100026.69;5012080;28;20409;-62
2022/11/13 05:18:53;;;;;;;146.25;27.58;;;;;;;2.21;100.00;100018.13;5013294;28;20056;-63
2022/11/13 05:21:38;;;;;;;145.80;24.57;;;;;;;2.21;100.00;100035.81;5011519;28;20147;-63
2022/11/13 05:24:23;;;;;;;57.35;18.88;;;;;;;2.23;100.00;100030.84;5013652;28;20071;-62
2022/11/13 05:27:07;;;;;;;134.67;22.87;;;;;;;2.01;100.00;100014.00;5012785;28;20567;-63
2022/11/13 05:29:51;;;;;;;200.97;29.20;;;;;;;1.99;100.00;100015.63;5014187;28;20561;-63
2022/11/13 05:32:35;;;;;;;131.67;24.93;;;;;;;2.16;100.00;100036.50;5011599;28;20095;-62
2022/11/13 05:35:19;;;;;;;148.23;24.80;;;;;;;2.14;100.00;100033.91;5012931;28;20060;-62
2022/11/13 05:38:03;;;;;;;201.97;28.47;;;;;;;2.02;100.00;100012.34;5013506;28;20053;-62
2022/11/13 05:40:47;;;;;;;212.73;29.73;;;;;;;2.10;100.00;100026.13;5012514;28;20516;-62
2022/11/13 05:43:32;;;;;;;182.70;28.00;;;;;;;2.04;100.00;100013.25;5008028;28;20108;-62
2022/11/13 05:46:28;;;;;;;197.23;31.60;;;;;;;2.14;100.00;100033.91;5008773;28;20396;-62
2022/11/13 05:49:12;;;;;;;167.20;26.50;;;;;;;2.07;100.00;100034.47;5004953;28;20158;-63
2022/11/13 05:51:56;;;;;;;119.73;24.97;;;;;;;2.25;100.00;100037.66;5011730;28;20053;-64
2022/11/13 05:54:40;;;;;;;168.77;29.87;;;;;;;2.20;100.00;100031.59;5013336;28;20115;-62
2022/11/13 05:57:24;;;;;;;200.33;31.93;;;;;;;2.28;100.00;100036.94;5015762;28;20078;-62
2022/11/13 06:00:09;;;;;;;178.93;29.17;;;;;;;2.24;100.00;100042.69;5012033;28;20088;-63
2022/11/13 06:02:53;;;;;;;207.10;37.05;;;;;;;2.33;100.00;100039.63;5008864;28;20064;-63
2022/11/13 06:05:37;;;;;;;145.53;29.93;;;;;;;2.39;100.00;100037.31;5006690;28;20052;-63
2022/11/13 06:08:21;;;;;;;128.07;27.57;;;;;;;2.30;100.00;100025.19;5010734;28;20459;-63
2022/11/13 06:11:08;;;;;;;197.80;35.00;;;;;;;2.44;100.00;100033.28;5004922;28;20504;-61
2022/11/13 06:13:54;;;;;;;153.90;28.43;;;;;;;2.49;100.00;100029.25;5011082;28;20419;-60
2022/11/13 06:16:38;;;;;;;177.35;33.67;;;;;;;2.53;100.00;100031.94;5012560;28;20085;-62
2022/11/13 06:19:23;;;;;;;186.53;35.47;;;;;;;2.71;100.00;100037.66;5010502;28;20198;-63
2022/11/13 06:22:07;;;;;;;289.87;46.70;;;;;;;2.63;100.00;100008.66;5009073;28;20084;-63
2022/11/13 06:24:51;;;;;;;237.77;43.93;;;;;;;2.75;100.00;100023.44;5004982;28;20088;-61
2022/11/13 06:27:35;;;;;;;173.07;41.07;;;;;;;2.96;100.00;100038.47;5004570;28;20135;-62
2022/11/13 06:30:19;;;;;;;72.17;32.37;;;;;;;3.07;100.00;100034.63;5005836;28;20060;-61
2022/11/13 06:33:04;;;;;;;146.77;40.65;;;;;;;3.03;100.00;100018.47;5005932;28;20077;-62
2022/11/13 06:35:48;;;;;;;223.30;45.20;;;;;;;3.24;100.00;100036.03;5009721;28;20056;-62
2022/11/13 06:38:34;;;;;;;131.40;39.63;;;;;;;3.30;100.00;100038.78;5014437;28;20084;-62
2022/11/13 06:41:21;;;;;;;139.00;37.87;;;;;;;3.30;100.00;100036.25;5012661;28;20061;-62
2022/11/13 06:44:05;;;;;;;162.60;41.50;;;;;;;3.39;100.00;100030.63;5014206;28;20721;-63
2022/11/13 06:46:49;;;;;;;77.00;31.97;;;;;;;3.44;100.00;100029.94;5011855;28;20476;-64
2022/11/13 06:49:33;;;;;;;173.53;39.33;;;;;;;3.47;100.00;100024.97;5013165;28;20068;-62
2022/11/13 06:52:18;;;;;;;186.47;36.77;;;;;;;3.49;100.00;100028.41;5009178;28;20064;-62
2022/11/13 06:55:02;;;;;;;199.87;41.70;;;;;;;3.50;100.00;100027.59;5012298;28;20064;-63
2022/11/13 06:57:46;;;;;;;96.43;32.77;;;;;;;3.60;100.00;100026.22;5011041;28;20056;-62
2022/11/13 07:00:30;;;;;;;93.13;29.57;;;;;;;3.51;100.00;100001.44;5004865;28;20226;-64
2022/11/13 07:03:16;;;;;;;179.20;38.77;;;;;;;3.51;100.00;100024.25;5008092;28;20057;-62
2022/11/13 07:06:05;;;;;;;98.10;33.37;;;;;;;3.61;100.00;100023.72;5011168;28;20768;-63
2022/11/13 07:08:50;;;;;;;72.90;29.63;;;;;;;3.68;100.00;100025.66;5013168;28;20411;-62
2022/11/13 07:11:34;;;;;;;53.30;24.83;;;;;;;3.79;100.00;100020.88;5011630;28;20406;-62
2022/11/13 07:14:19;;;;;;;63.23;25.40;;;;;;;3.76;100.00;100017.41;5009488;28;20165;-63
2022/11/13 07:17:03;;;;;;;72.83;26.60;;;;;;;3.77;100.00;100017.47;5009537;28;20157;-64
2022/11/13 07:19:47;;;;;;;69.93;26.00;;;;;;;3.78;100.00;100021.69;5010480;28;20113;-62
2022/11/13 07:22:31;;;;;;;68.00;26.30;;;;;;;3.83;100.00;100004.06;5007571;28;20876;-63
2022/11/13 07:25:16;;;;;;;74.03;29.73;;;;;;;3.88;100.00;100007.63;5007297;28;20177;-63
2022/11/13 07:28:00;;;;;;;58.53;26.27;;;;;;;3.66;100.00;99970.59;5010049;28;20056;-65
2022/11/13 07:30:44;;;;;;;72.20;26.07;;;;;;;3.87;100.00;99999.16;5008297;28;20544;-64
2022/11/13 07:33:28;;;;;;;63.63;26.27;;;;;;;4.06;100.00;100005.63;5010335;28;20715;-64
2022/11/13 07:36:13;;;;;;;65.90;22.70;;;;;;;4.05;100.00;100012.38;5008826;28;20192;-62
2022/11/13 07:38:58;;;;;;;42.83;23.63;;;;;;;4.09;100.00;100011.66;5009386;28;20091;-61
2022/11/13 07:41:42;;;;;;;60.60;23.97;;;;;;;4.22;100.00;100009.44;5010118;28;20080;-61
2022/11/13 07:44:26;;;;;;;54.03;24.87;;;;;;;4.17;100.00;99991.56;5011568;28;20065;-62
2022/11/13 07:47:09;;;;;;;47.77;23.67;;;;;;;4.46;100.00;100013.53;5009455;28;20057;-62
2022/11/13 07:49:54;;;;;;;41.40;22.63;;;;;;;4.58;100.00;100011.31;5004089;28;20139;-62
2022/11/13 07:52:38;;;;;;;40.90;22.80;;;;;;;4.80;100.00;100016.97;5006825;28;20060;-63
2022/11/13 07:55:22;;;;;;;46.23;22.47;;;;;;;4.72;100.00;100018.44;5008723;28;20049;-64
2022/11/13 07:58:08;;;;;;;56.80;20.73;;;;;;;4.60;100.00;100024.06;5023335;28;20607;-62
2022/11/13 08:00:52;;;;;;;49.00;19.57;;;;;;;4.33;100.00;100011.47;5011806;28;20587;-62
2022/11/13 08:03:36;;;;;;;39.03;19.10;;;;;;;4.45;100.00;100023.66;5009472;28;20421;-62
2022/11/13 08:06:20;;;;;;;43.23;19.90;;;;;;;4.40;100.00;100021.00;5010107;28;20061;-64
2022/11/13 08:09:05;;;;;;;49.37;20.90;;;;;;;4.41;100.00;100004.91;5011862;28;20549;-63
2022/11/13 08:11:49;;;;;;;37.90;19.33;;;;;;;4.31;100.00;100005.50;5011228;28;20092;-65
2022/11/13 08:14:33;;;;;;;54.10;20.37;;;;;;;4.31;100.00;100018.19;5009282;28;20076;-62
2022/11/13 08:17:17;;;;;;;41.17;20.80;;;;;;;4.26;100.00;99998.56;5009319;28;20385;-62
2022/11/13 08:20:02;;;;;;;39.03;20.47;;;;;;;4.32;100.00;99991.13;5009445;28;20117;-64
2022/11/13 08:22:46;;;;;;;42.40;20.13;;;;;;;4.57;100.00;100018.91;5010089;28;20512;-63
2022/11/13 08:25:32;;;;;;;41.13;20.73;;;;;;;4.64;100.00;100005.56;5008409;28;20128;-64
2022/11/13 08:28:16;;;;;;;42.53;20.73;;;;;;;4.75;100.00;100011.78;5004907;28;20061;-63
2022/11/13 08:31:02;;;;;;;43.77;21.70;;;;;;;4.82;100.00;100007.72;5003692;28;20107;-62
2022/11/13 08:33:46;;;;;;;37.60;19.45;;;;;;;4.98;100.00;100004.75;5018795;28;20125;-63
2022/11/13 08:36:30;;;;;;;42.03;21.27;;;;;;;5.02;100.00;100009.94;5007636;28;20127;-62
2022/11/13 08:39:14;;;;;;;35.03;20.03;;;;;;;5.11;100.00;100019.47;5003482;28;20574;-62
2022/11/13 08:41:58;;;;;;;35.97;20.48;;;;;;;5.34;100.00;100022.59;5006261;28;20064;-63
2022/11/13 08:44:43;;;;;;;31.40;18.67;;;;;;;5.36;100.00;100014.19;5008398;28;20069;-64
2022/11/13 08:47:28;;;;;;;33.33;18.77;;;;;;;5.48;100.00;100021.22;5007535;28;20056;-62
2022/11/13 08:50:12;;;;;;;29.67;19.95;;;;;;;5.54;100.00;100018.84;5009603;28;20096;-63
2022/11/13 08:52:58;;;;;;;36.80;19.60;;;;;;;5.59;100.00;100013.84;5010353;28;20416;-63
2022/11/13 08:55:42;;;;;;;32.03;18.83;;;;;;;5.66;100.00;100014.03;5009080;28;20052;-62
2022/11/13 08:58:27;;;;;;;32.47;19.37;;;;;;;5.78;100.00;100005.81;5009000;28;20049;-63
2022/11/13 09:01:11;;;;;;;32.70;18.43;;;;;;;5.84;100.00;99995.78;5022742;28;20100;-63
2022/11/13 09:03:57;;;;;;;33.77;18.37;;;;;;;6.40;100.00;99985.09;5010342;28;20068;-63
2022/11/13 09:06:42;;;;;;;33.70;19.10;;;;;;;6.41;100.00;100001.22;5006815;28;20143;-62
2022/11/13 09:09:26;;;;;;;52.77;23.30;;;;;;;6.26;100.00;100006.88;5003027;28;20111;-65
2022/11/13 09:12:10;;;;;;;39.97;21.60;;;;;;;6.18;100.00;100005.88;5000430;28;20078;-64
2022/11/13 09:14:54;;;;;;;61.90;24.87;;;;;;;6.22;100.00;100010.19;5003215;28;20511;-63
2022/11/13 09:17:38;;;;;;;37.23;21.93;;;;;;;6.23;100.00;99983.06;5007528;28;20056;-64
2022/11/13 09:20:22;;;;;;;42.33;23.43;;;;;;;6.47;100.00;100006.44;5009565;28;20119;-67
2022/11/13 09:23:08;;;;;;;42.10;25.23;;;;;;;6.62;100.00;99983.78;5005447;28;20155;-65
2022/11/13 09:25:52;;;;;;;40.93;23.20;;;;;;;7.13;100.00;100009.34;5007296;28;20057;-66
2022/11/13 09:28:36;;;;;;;37.77;24.00;;;;;;;7.24;100.00;100009.53;5010609;28;20629;-65
2022/11/13 09:31:20;;;;;;;35.63;21.37;;;;;;;7.19;100.00;100012.00;5006274;28;20104;-67
2022/11/13 09:34:04;;;;;;;37.67;20.90;;;;;;;7.49;100.00;100010.78;5002542;28;20096;-66
2022/11/13 09:36:49;;;;;;;31.73;20.43;;;;;;;7.87;100.00;99999.44;5003321;28;20420;-65
2022/11/13 09:39:33;;;;;;;33.17;21.30;;;;;;;7.98;100.00;99992.75;5001558;28;20769;-64
2022/11/13 09:42:21;;;;;;;34.97;22.30;;;;;;;7.88;100.00;99987.53;5003799;28;20117;-64
2022/11/13 09:45:11;;;;;;;34.60;22.17;;;;;;;8.08;100.00;99994.63;5002608;28;20104;-66
2022/11/13 09:48:11;;;;;;;29.13;21.30;;;;;;;8.16;100.00;99980.25;5010078;28;20048;-65
2022/11/13 09:50:58;;;;;;;29.93;19.07;;;;;;;8.53;100.00;99996.06;5008860;28;20087;-63
2022/11/13 09:53:42;;;;;;;28.52;17.92;;;;;;;8.87;100.00;99985.31;5005598;28;20056;-64
2022/11/13 09:56:32;;;;;;;29.50;20.08;;;;;;;8.98;100.00;99977.75;5005106;28;20080;-65
2022/11/13 09:59:26;;;;;;;29.67;18.92;;;;;;;9.01;100.00;99975.19;5002841;28;20069;-65
2022/11/13 10:02:43;;;;;;;30.20;20.10;;;;;;;8.49;100.00;99979.78;5003715;28;20581;-67
2022/11/13 10:05:48;;;;;;;30.88;20.52;;;;;;;8.60;100.00;99974.81;5007941;28;20064;-65
2022/11/13 10:08:35;;;;;;;32.42;20.17;;;;;;;8.72;100.00;99969.81;5012460;28;20107;-63
2022/11/13 10:11:43;;;;;;;30.33;20.38;;;;;;;8.52;100.00;99948.31;5012828;28;20416;-63
2022/11/13 10:14:36;;;;;;;26.90;17.98;;;;;;;8.55;100.00;99956.00;5023137;28;20052;-66
2022/11/13 10:17:27;;;;;;;28.73;19.85;;;;;;;8.12;100.00;99950.38;5010892;28;20076;-62
2022/11/13 10:20:14;;;;;;;29.98;21.33;;;;;;;8.31;100.00;99945.53;5003718;28;20057;-69
2022/11/13 10:23:13;;;;;;;27.63;20.52;;;;;;;8.49;100.00;99943.16;5005514;28;20139;-66
2022/11/13 10:26:10;;;;;;;34.92;24.80;;;;;;;8.11;100.00;99923.13;5015574;28;20492;-64
2022/11/13 10:29:04;;;;;;;33.88;21.77;;;;;;;8.43;100.00;99935.44;5008241;28;20052;-65
2022/11/13 10:31:50;;;;;;;37.42;23.90;;;;;;;8.23;100.00;99927.53;5007236;28;20052;-65
2022/11/13 10:34:35;;;;;;;66.85;33.67;;;;;;;8.14;100.00;99930.84;5008046;28;20063;-64
2022/11/13 10:37:27;;;;;;;47.33;28.17;;;;;;;8.17;100.00;99918.09;5007422;28;20052;-65
2022/11/13 10:40:23;;;;;;;58.97;31.77;;;;;;;8.09;100.00;99906.09;5007829;28;20050;-65
2022/11/13 10:43:16;;;;;;;70.15;39.53;;;;;;;8.36;100.00;99906.41;5007463;28;20073;-68
2022/11/13 10:46:03;;;;;;;51.92;31.45;;;;;;;8.51;100.00;99898.91;5007099;28;20069;-69
2022/11/13 10:48:48;;;;;;;51.80;28.98;;;;;;;8.69;100.00;99888.00;5002295;28;20065;-66
2022/11/13 10:51:34;;;;;;;36.03;22.48;;;;;;;8.96;100.00;99872.84;5008877;28;20370;-64
2022/11/13 10:54:24;;;;;;;36.95;22.92;;;;;;;9.27;100.00;99881.59;5007491;28;20108;-67
2022/11/13 10:57:22;;;;;;;37.20;21.08;;;;;;;9.24;100.00;99873.91;5009111;28;20132;-65
2022/11/13 11:00:46;;;;;;;36.25;21.38;;;;;;;9.25;100.00;99870.47;5007213;28;20103;-63
2022/11/13 11:03:30;;;;;;;32.60;19.67;;;;;;;9.34;100.00;99852.63;4944380;28;20138;-62
2022/11/13 11:06:14;;;;;;;30.40;20.50;;;;;;;9.71;100.00;99868.19;4946326;28;20061;-68
2022/11/13 11:09:19;;;;;;;32.08;21.60;;;;;;;10.00;100.00;99854.63;4945639;28;20578;-64
2022/11/13 11:12:15;;;;;;;40.55;27.23;;;;;;;10.24;100.00;99853.00;4944809;28;20110;-65
2022/11/13 11:15:08;;;;;;;;;;;;;;;10.58;100.00;99844.50;4944991;28;20073;-65
2022/11/13 11:18:02;;;;;;;30.73;18.65;;;;;;;10.75;100.00;99818.84;4947245;28;20457;-69
2022/11/13 11:21:04;;;;;;;21.80;16.80;;;;;;;11.03;100.00;99830.81;4949283;28;20114;-69
2022/11/13 11:23:58;;;;;;;29.70;18.52;;;;;;;11.10;100.00;99824.81;4943226;28;20240;-70
2022/11/13 11:26:51;;;;;;;26.55;17.05;;;;;;;11.26;100.00;99823.03;4949453;28;20058;-70
2022/11/13 11:29:54;;;;;;;25.42;16.35;;;;;;;11.29;100.00;99805.06;4947413;28;20152;-63
2022/11/13 11:32:46;;;;;;;27.65;18.38;;;;;;;11.29;100.00;99800.78;4947202;28;20136;-67
2022/11/13 11:35:58;;;;;;;21.90;15.07;;;;;;;11.51;100.00;99811.84;4942015;28;20485;-67
2022/11/13 11:39:17;;;;;;;23.95;16.95;;;;;;;11.54;100.00;99801.56;5007553;28;20138;-61
2022/11/13 11:42:25;;;;;;;22.98;15.73;;;;;;;11.56;100.00;99799.84;4942096;28;20058;-62
2022/11/13 11:45:15;;;;;;;22.30;15.88;;;;;;;11.61;100.00;99792.97;4947195;28;20178;-61
2022/11/13 11:48:03;;;;;;;22.95;16.52;;;;;;;11.68;100.00;99791.22;4950282;28;20054;-62
2022/11/13 11:50:58;;;;;;;18.63;14.35;;;;;;;11.61;100.00;99772.41;4947058;28;20815;-62
2022/11/13 11:54:11;;;;;;;20.95;16.02;;;;;;;11.73;100.00;99782.66;4947937;28;20170;-62
2022/11/13 11:57:19;;;;;;;21.27;15.68;;;;;;;11.57;100.00;99755.31;4948302;28;20138;-62
2022/11/13 12:00:11;;;;;;;21.23;15.88;;;;;;;11.73;100.00;99781.81;4947947;28;20074;-60
2022/11/13 12:03:01;;;;;;;21.60;14.80;;;;;;;11.83;100.00;99768.06;4945422;28;20070;-64
2022/11/13 12:06:35;;;;;;;19.10;14.48;;;;;;;11.95;100.00;99774.84;4943141;28;20097;-64
2022/11/13 12:09:41;;;;;;;20.67;14.73;;;;;;;12.04;100.00;99767.91;4948466;28;20106;-64
2022/11/13 12:12:44;;;;;;;19.80;14.23;;;;;;;12.08;100.00;99758.47;4942747;28;20165;-63
2022/11/13 12:15:59;;;;;;;18.42;13.95;;;;;;;12.09;100.00;99762.75;4943967;28;20101;-63
2022/11/13 12:19:03;;;;;;;17.77;13.60;;;;;;;12.17;100.00;99750.69;4981507;28;20056;-62
2022/11/13 12:22:21;;;;;;;19.92;14.60;;;;;;;12.22;100.00;99743.81;5011712;28;20057;-66
2022/11/13 12:25:16;;;;;;;18.70;13.95;;;;;;;12.23;100.00;99742.91;5021929;28;20052;-65
2022/11/13 12:28:13;;;;;;;20.98;13.90;;;;;;;12.23;100.00;99727.50;5004627;28;20053;-67
2022/11/13 12:31:16;;;;;;;21.38;15.43;;;;;;;12.18;100.00;99719.81;5002958;28;20115;-65
2022/11/13 12:34:21;;;;;;;20.40;14.32;;;;;;;12.13;100.00;99723.31;5006550;28;20632;-64
2022/11/13 12:37:12;;;;;;;20.38;14.50;;;;;;;12.14;100.00;99736.13;5010765;28;20417;-65
2022/11/13 12:40:04;;;;;;;19.13;13.73;;;;;;;12.13;100.00;99739.59;5008040;28;20100;-63
2022/11/13 12:42:55;;;;;;;19.10;14.50;;;;;;;12.06;100.00;99721.63;5008408;28;20045;-62
2022/11/13 12:45:53;;;;;;;19.50;14.60;;;;;;;11.97;100.00;99719.97;5009734;28;20064;-64